Time;durP1;ratioP1;P1;durP2;ratioP2;P2;SDS_P1;SDS_P2;PMS_P1;PMS_P2;Temp;Humidity;BMP_temperature;BMP_pressure;BME280_temperature;BME280_humidity;BME280_pressure;Samples;Min_cycle;Max_cycle;Signal;HPM_P1;HPM_P2
2021/12/24 00:01:51;;;;;;;89.80;28.73;;;6.20;99.90;;;;;;5034638;28;20397;-73
2021/12/24 00:04:17;;;;;;;69.63;24.40;;;6.20;99.90;;;;;;5016898;28;20166;-73
2021/12/24 00:06:43;;;;;;;70.17;25.00;;;6.20;99.90;;;;;;5017325;28;20121;-73
2021/12/24 00:09:09;;;;;;;75.33;25.87;;;6.20;99.90;;;;;;5034258;28;20046;-73
2021/12/24 00:11:36;;;;;;;64.40;23.87;;;6.30;99.90;;;;;;5034522;28;20045;-73
2021/12/24 00:14:05;;;;;;;66.28;24.95;;;6.30;99.90;;;;;;5016736;28;20437;-73
2021/12/24 00:16:44;;;;;;;66.40;24.98;;;6.20;99.90;;;;;;5034582;28;20445;-72
2021/12/24 00:35:17;;;;;;;51.28;18.30;;;;;;;;;;5033696;28;20055;-72
2021/12/24 00:37:45;;;;;;;58.58;19.92;;;;;;;;;;5034055;28;20050;-71
2021/12/24 00:42:40;;;;;;;48.17;18.13;;;;;;;;;;5034160;28;20136;-73
2021/12/24 00:45:06;;;;;;;44.88;17.25;;;;;;;;;;5033592;28;20056;-73
2021/12/24 00:47:32;;;;;;;48.38;18.30;;;;;;;;;;5033822;28;20045;-72
2021/12/24 00:50:00;;;;;;;38.00;15.77;;;;;;;;;;5033721;28;20052;-72
2021/12/24 00:52:49;;;;;;;41.78;15.93;;;;;;;;;;5033159;28;20060;-72
2021/12/24 00:55:13;;;;;;;42.30;16.25;;;;;;;;;;5032795;28;20050;-72
2021/12/24 00:57:41;;;;;;;55.35;17.73;;;;;;;;;;5033622;28;20133;-72
2021/12/24 01:00:10;;;;;;;40.55;16.00;;;;;;;;;;5033130;28;20052;-72
2021/12/24 01:02:36;;;;;;;56.20;18.85;;;;;;;;;;5033557;28;20103;-72
2021/12/24 01:05:02;;;;;;;57.85;17.85;;;;;;;;;;5033430;28;20056;-72
2021/12/24 01:07:29;;;;;;;53.83;17.45;;;;;;;;;;5033175;28;20128;-72
2021/12/24 01:09:55;;;;;;;64.22;19.92;;;;;;;;;;5033380;28;20084;-72
2021/12/24 01:12:21;;;;;;;50.60;17.33;;;;;;;;;;5033098;28;20131;-73
2021/12/24 01:14:48;;;;;;;63.08;19.55;;;;;;;;;;5033425;28;20053;-73
2021/12/24 01:19:44;;;;;;;65.50;19.90;;;;;;;;;;5033151;28;20049;-72
2021/12/24 01:25:14;;;;;;;75.63;21.20;;;;;;;;;;4996318;28;20127;-72
2021/12/24 01:38:56;;;;;;;74.70;23.70;;;;;;;;;;5033086;28;20111;-73
2021/12/24 01:44:08;;;;;;;94.95;25.90;;;;;;;;;;5033160;28;20050;-73
2021/12/24 01:46:35;;;;;;;101.10;27.40;;;;;;;;;;5032552;28;20053;-73
2021/12/24 01:49:01;;;;;;;84.68;25.95;;;;;;;;;;5032801;28;20050;-73
2021/12/24 01:51:28;;;;;;;90.72;26.50;;;;;;;;;;5032491;28;20045;-73
2021/12/24 01:53:54;;;;;;;90.88;26.55;;;;;;;;;;5032988;28;20055;-72
2021/12/24 01:56:20;;;;;;;88.28;25.52;;;;;;;;;;5014876;28;20129;-73
2021/12/24 01:58:46;;;;;;;77.20;23.48;;;;;;;;;;5032782;28;20129;-72
2021/12/24 02:01:12;;;;;;;97.35;26.45;;;;;;;;;;5032653;28;20045;-72
2021/12/24 02:03:39;;;;;;;107.47;27.35;;;;;;;;;;5033610;28;20045;-72
2021/12/24 02:06:05;;;;;;;96.03;26.80;;;;;;;;;;5019625;28;20042;-72
2021/12/24 02:08:31;;;;;;;98.13;28.08;;;;;;;;;;5036534;28;20049;-72
2021/12/24 02:10:57;;;;;;;99.93;28.13;;;;;;;;;;5036797;28;20049;-72
2021/12/24 02:13:23;;;;;;;100.40;28.48;;;;;;;;;;5018954;28;20128;-72
2021/12/24 02:29:19;;;;;;;81.03;23.23;;;;;;;;;;5036078;28;20132;-72
2021/12/24 02:31:45;;;;;;;94.78;26.55;;;;;;;;;;5036319;28;20427;-72
2021/12/24 02:34:11;;;;;;;95.35;25.13;;;;;;;;;;5036382;28;20133;-72
2021/12/24 02:36:37;;;;;;;94.50;25.63;;;;;;;;;;5035908;28;20053;-72
2021/12/24 02:39:04;;;;;;;91.20;24.10;;;;;;;;;;5036129;28;20049;-72
2021/12/24 02:41:30;;;;;;;95.30;23.60;;;;;;;;;;5035761;28;20304;-72
2021/12/24 02:43:56;;;;;;;88.25;23.70;;;;;;;;;;5036183;28;20353;-72
2021/12/24 02:46:29;;;;;;;93.60;23.90;;;;;;;;;;5035721;28;20104;-73
2021/12/24 02:54:07;;;;;;;;;;;;;;;;;;5036266;28;20062;-73
2021/12/24 02:56:38;;;;;;;106.90;26.43;;;;;;;;;;5035554;28;19968;-73
2021/12/24 02:59:05;;;;;;;121.93;25.50;;;;;;;;;;5035717;28;20288;-73
2021/12/24 03:01:35;;;;;;;116.00;24.88;;;;;;;;;;5035283;28;20296;-73
2021/12/24 03:04:01;;;;;;;114.88;24.92;;;;;;;;;;5035624;28;20041;-73
2021/12/24 03:06:28;;;;;;;105.82;23.95;;;;;;;;;;5035386;28;20509;-73
2021/12/24 03:08:55;;;;;;;83.82;21.52;;;;;;;;;;5035658;28;20076;-73
2021/12/24 03:11:21;;;;;;;80.83;22.37;;;;;;;;;;5035548;28;20045;-73
2021/12/24 03:13:47;;;;;;;81.43;21.53;;;;;;;;;;5035491;28;20284;-73
2021/12/24 03:16:14;;;;;;;68.80;19.70;;;;;;;;;;5035299;28;20284;-73
2021/12/24 03:18:42;;;;;;;80.63;22.08;;;;;;;;;;5035114;28;20288;-73
2021/12/24 03:21:22;;;;;;;88.90;23.53;;;;;;;;;;5035292;28;20045;-73
2021/12/24 03:26:27;;;;;;;81.70;21.90;;;;;;;;;;5035026;28;20287;-73
2021/12/24 03:28:53;;;;;;;87.80;24.13;;;;;;;;;;5035263;28;20366;-73
2021/12/24 03:31:19;;;;;;;86.40;23.90;;;;;;;;;;5035352;28;20323;-73
2021/12/24 03:33:46;;;;;;;88.23;23.90;;;;;;;;;;5034877;28;20365;-73
2021/12/24 03:36:13;;;;;;;77.77;23.63;;;;;;;;;;5034819;28;20695;-73
2021/12/24 03:38:39;;;;;;;97.50;24.63;;;;;;;;;;5034710;28;20337;-73
2021/12/24 03:41:06;;;;;;;84.93;25.57;;;;;;;;;;5017294;28;20819;-73
2021/12/24 03:43:32;;;;;;;94.80;26.57;;;;;;;;;;5017190;28;20283;-73
2021/12/24 03:46:02;;;;;;;100.67;28.30;;;;;;;;;;5017374;28;20284;-73
2021/12/24 03:48:45;;;;;;;101.93;29.00;;;;;;;;;;5034583;28;20281;-73
2021/12/24 03:56:27;;;;;;;93.57;31.98;;;;;;;;;;5034825;28;20695;-73
2021/12/24 03:58:53;;;;;;;106.97;31.90;;;;;;;;;;5034990;28;20415;-73
2021/12/24 04:01:19;;;;;;;107.57;33.73;;;;;;;;;;5017025;28;20391;-73
2021/12/24 04:03:45;;;;;;;109.47;35.03;;;;;;;;;;5034325;28;20367;-73
2021/12/24 04:06:12;;;;;;;109.37;33.47;;;;;;;;;;5017033;28;20804;-73
2021/12/24 04:08:38;;;;;;;111.17;32.57;;;;;;;;;;5034261;28;20299;-73
2021/12/24 04:11:04;;;;;;;99.63;34.83;;;;;;;;;;5034630;28;20359;-73
2021/12/24 04:13:31;;;;;;;89.27;30.47;;;;;;;;;;5034137;28;20292;-73
2021/12/24 04:15:57;;;;;;;100.20;33.07;;;;;;;;;;5034321;28;20383;-73
2021/12/24 04:18:39;;;;;;;105.33;31.60;;;;;;;;;;5034341;28;20280;-73
2021/12/24 04:26:37;;;;;;;85.18;27.30;;;;;;;;;;5033436;28;20128;-72
2021/12/24 04:29:04;;;;;;;90.00;29.10;;;;;;;;;;5016369;28;20045;-73
2021/12/24 04:31:40;;;;;;;84.93;29.50;;;;;;;;;;5034202;28;20311;-72
2021/12/24 04:34:06;;;;;;;69.20;26.83;;;;;;;;;;5034270;28;20358;-73
2021/12/24 05:03:37;;;;;;;83.05;28.17;;;;;;;;;;5033582;28;20122;-73
2021/12/24 05:06:27;;;;;;;76.30;25.77;;;;;;;;;;5033573;28;20087;-73
2021/12/24 05:09:07;;;;;;;82.53;27.87;;;;;;;;;;5033268;28;20288;-73
2021/12/24 05:11:33;;;;;;;75.37;26.37;;;;;;;;;;5033555;28;20277;-73
2021/12/24 05:13:59;;;;;;;68.67;25.10;;;;;;;;;;5033094;28;20370;-73
2021/12/24 05:16:38;;;;;;;69.53;22.50;;;;;;;;;;5033269;28;20754;-73
2021/12/24 05:21:33;;;;;;;62.93;21.13;;;;;;;;;;5033329;28;20694;-73
2021/12/24 05:24:12;;;;;;;51.00;19.57;;;;;;;;;;5032963;28;20288;-73
2021/12/24 05:26:38;;;;;;;75.00;21.47;;;;;;;;;;5032972;28;20326;-73
2021/12/24 05:29:05;;;;;;;59.43;19.80;;;;;;;;;;5015546;28;20284;-73
2021/12/24 05:31:31;;;;;;;66.97;19.87;;;;;;;;;;5033091;28;20284;-73
2021/12/24 05:33:57;;;;;;;58.47;19.17;;;;;;;;;;5032775;28;20284;-73
2021/12/24 05:36:24;;;;;;;63.20;17.13;;;;;;;;;;5033100;28;20299;-73
2021/12/24 05:38:50;;;;;;;57.37;18.10;;;;;;;;;;5031804;28;20288;-73
2021/12/24 05:41:18;;;;;;;59.53;16.23;;;;;;;;;;5032711;28;20403;-73
2021/12/24 05:43:45;;;;;;;59.83;18.10;;;;;;;;;;5032647;28;20679;-73
2021/12/24 05:46:11;;;;;;;52.80;16.73;;;;;;;;;;5033168;28;20292;-73
2021/12/24 05:48:37;;;;;;;40.63;15.03;;;;;;;;;;5032909;28;20327;-73
2021/12/24 05:51:03;;;;;;;50.40;15.00;;;;;;;;;;5032555;28;20311;-73
2021/12/24 05:53:29;;;;;;;49.30;14.97;;;;;;;;;;5032876;28;20288;-73
2021/12/24 05:55:56;;;;;;;48.07;14.50;;;;;;;;;;5032536;28;20288;-73
2021/12/24 05:58:22;;;;;;;52.93;14.23;;;;;;;;;;5032785;28;20686;-73
2021/12/24 06:00:48;;;;;;;51.40;14.50;;;;;;;;;;5032425;28;20292;-73
2021/12/24 06:03:15;;;;;;;44.73;13.83;;;;;;;;;;5015153;28;20343;-73
2021/12/24 06:05:42;;;;;;;51.53;14.50;;;;;;;;;;5032676;28;20323;-73
2021/12/24 06:08:08;;;;;;;53.17;13.43;;;;;;;;;;5032559;28;20712;-73
2021/12/24 06:10:35;;;;;;;52.30;13.97;;;;;;;;;;5032818;28;20281;-73
2021/12/24 06:13:01;;;;;;;49.37;13.83;;;;;;;;;;5032401;28;20280;-73
2021/12/24 06:15:27;;;;;;;58.27;14.10;;;;;;;;;;5032638;28;20367;-73
2021/12/24 06:17:55;;;;;;;41.10;12.87;;;;;;;;;;5014825;28;20287;-73
2021/12/24 06:20:23;;;;;;;50.80;13.57;;;;;;;;;;5032525;28;20300;-73
2021/12/24 06:22:49;;;;;;;42.43;11.87;;;;;;;;;;5014633;28;20328;-73
2021/12/24 06:25:17;;;;;;;50.77;12.47;;;;;;;;;;5032594;28;20367;-73
2021/12/24 06:27:43;;;;;;;48.10;11.07;;;;;;;;;;5032690;28;20284;-73
2021/12/24 06:30:09;;;;;;;52.07;12.40;;;;;;;;;;5032208;28;20288;-73
2021/12/24 06:32:35;;;;;;;43.43;12.17;;;;;;;;;;5032522;28;20288;-72
2021/12/24 06:35:02;;;;;;;49.00;11.87;;;;;;;;;;5014611;28;20323;-73
2021/12/24 06:37:28;;;;;;;48.57;11.73;;;;;;;;;;5032717;28;20323;-72
2021/12/24 06:39:55;;;;;;;47.23;10.97;;;;;;;;;;5032022;28;20380;-72
2021/12/24 06:42:21;;;;;;;49.13;11.50;;;;;;;;;;5032413;28;20288;-73
2021/12/24 06:44:47;;;;;;;40.70;12.07;;;;;;;;;;5032081;28;20282;-73
2021/12/24 06:47:14;;;;;;;55.97;11.10;;;;;;;;;;5032390;28;20303;-72
2021/12/24 06:49:40;;;;;;;37.53;10.77;;;;;;;;;;5033271;28;20317;-72
2021/12/24 06:52:06;;;;;;;45.53;10.87;;;;;;;;;;5035697;28;20665;-72
2021/12/24 06:54:33;;;;;;;36.17;10.70;;;;;;;;;;5018501;28;20288;-72
2021/12/24 06:57:02;;;;;;;44.97;11.20;;;;;;;;;;5035723;28;20280;-72
2021/12/24 06:59:29;;;;;;;41.57;10.87;;;;;;;;;;5035824;28;20362;-72
2021/12/24 07:01:59;;;;;;;38.07;9.27;;;;;;;;;;5035602;28;20300;-73
2021/12/24 07:04:26;;;;;;;38.50;9.30;;;;;;;;;;5036027;28;20609;-73
2021/12/24 07:06:52;;;;;;;34.13;10.40;;;;;;;;;;5001726;28;20292;-73
2021/12/24 07:09:18;;;;;;;42.97;10.33;;;;;;;;;;5035897;28;20288;-73
2021/12/24 07:11:45;;;;;;;38.87;9.77;;;;;;;;;;5035745;28;20283;-72
2021/12/24 07:14:11;;;;;;;32.63;9.50;;;;;;;;;;5035343;28;20719;-72
2021/12/24 07:16:37;;;;;;;42.17;10.07;;;;;;;;;;5035809;28;20283;-72
2021/12/24 07:19:03;;;;;;;34.17;8.87;;;;;;;;;;5035258;28;20768;-72
2021/12/24 07:21:29;;;;;;;37.37;7.80;;;;;;;;;;5018101;28;20311;-72
2021/12/24 07:23:56;;;;;;;46.13;9.33;;;;;;;;;;5035190;28;20334;-73
2021/12/24 07:26:22;;;;;;;30.83;7.30;;;;;;;;;;5035435;28;20338;-72
2021/12/24 07:28:48;;;;;;;37.60;8.30;;;;;;;;;;5035527;28;20288;-72
2021/12/24 07:31:14;;;;;;;38.97;9.07;;;;;;;;;;5017636;28;20292;-72
2021/12/24 07:33:40;;;;;;;41.47;7.97;;;;;;;;;;5035216;28;20315;-72
2021/12/24 07:36:06;;;;;;;32.70;7.57;;;;;;;;;;5017015;28;20355;-73
2021/12/24 07:38:32;;;;;;;29.87;7.20;;;;;;;;;;5035040;28;20767;-73
2021/12/24 07:41:00;;;;;;;27.50;7.47;;;;;;;;;;5034910;28;20387;-73
2021/12/24 07:43:26;;;;;;;35.60;7.73;;;;;;;;;;5035223;28;20268;-73
2021/12/24 07:45:54;;;;;;;34.17;7.47;;;;;;;;;;5035036;28;20335;-73
2021/12/24 07:48:27;;;;;;;35.23;7.53;;;;;;;;;;5017362;28;20323;-73
2021/12/24 07:53:21;;;;;;;34.33;7.57;;;;;;;;;;5034887;28;20284;-73
2021/12/24 07:55:47;;;;;;;35.97;6.20;;;;;;;;;;5034814;28;20373;-73
2021/12/24 07:58:14;;;;;;;36.27;8.80;;;;;;;;;;5034492;28;20779;-73
2021/12/24 08:00:41;;;;;;;37.57;6.77;;;;;;;;;;5034111;28;20772;-72
2021/12/24 08:03:07;;;;;;;46.20;8.43;;;;;;;;;;5033867;28;20350;-72
2021/12/24 08:05:35;;;;;;;32.37;7.70;;;;;;;;;;5034841;28;20300;-72
2021/12/24 08:08:01;;;;;;;37.70;8.07;;;;;;;;;;5034410;28;20291;-72
2021/12/24 08:10:30;;;;;;;32.63;7.10;;;;;;;;;;5034759;28;20272;-72
2021/12/24 08:12:56;;;;;;;40.23;7.37;;;;;;;;;;5034520;28;20752;-72
2021/12/24 08:15:22;;;;;;;35.43;8.00;;;;;;;;;;5034511;28;20284;-72
2021/12/24 08:17:48;;;;;;;39.47;7.60;;;;;;;;;;5034441;28;20366;-72
2021/12/24 08:20:21;;;;;;;33.07;6.90;;;;;;;;;;5034328;28;20422;-72
2021/12/24 08:22:49;;;;;;;37.93;7.53;;;;;;;;;;5017828;28;20279;-72
2021/12/24 08:25:15;;;;;;;35.93;7.60;;;;;;;;;;5034023;28;20284;-74
2021/12/24 08:27:41;;;;;;;33.63;7.87;;;;;;;;;;5034216;28;20284;-73
2021/12/24 08:30:08;;;;;;;35.63;9.20;;;;;;;;;;5033852;28;20409;-72
2021/12/24 08:32:38;;;;;;;37.50;8.07;;;;;;;;;;5034344;28;20292;-72
2021/12/24 08:35:05;;;;;;;34.03;8.37;;;;;;;;;;5034200;28;20296;-72
2021/12/24 08:37:31;;;;;;;31.90;7.80;;;;;;;;;;5033766;28;20375;-72
2021/12/24 08:39:57;;;;;;;40.13;8.57;;;;;;;;;;5034132;28;20287;-71
2021/12/24 08:42:23;;;;;;;48.03;8.80;;;;;;;;;;5033643;28;20289;-72
2021/12/24 08:44:51;;;;;;;33.87;7.90;;;;;;;;;;5033855;28;20371;-71
2021/12/24 08:47:17;;;;;;;24.77;6.80;;;;;;;;;;5033714;28;20286;-72
2021/12/24 08:49:43;;;;;;;32.63;7.73;;;;;;;;;;5033760;28;20288;-72
2021/12/24 08:52:09;;;;;;;40.43;8.20;;;;;;;;;;5033479;28;20610;-72
2021/12/24 08:54:35;;;;;;;34.93;7.60;;;;;;;;;;5033775;28;20345;-72
2021/12/24 08:57:02;;;;;;;34.00;7.80;;;;;;;;;;5033827;28;20684;-71
2021/12/24 08:59:28;;;;;;;39.57;7.60;;;;;;;;;;5033586;28;20367;-72
2021/12/24 09:01:54;;;;;;;30.47;7.33;;;;;;;;;;5015847;28;20315;-73
2021/12/24 09:04:21;;;;;;;43.60;8.07;;;;;;;;;;5015649;28;20276;-73
2021/12/24 09:06:47;;;;;;;33.73;7.30;;;;;;;;;;5033514;28;20323;-74
2021/12/24 09:09:13;;;;;;;46.63;8.67;;;;;;;;;;5015546;28;20296;-73
2021/12/24 09:11:40;;;;;;;44.37;8.27;;;;;;;;;;5033652;28;20695;-73
2021/12/24 09:14:07;;;;;;;41.70;7.50;;;;;;;;;;5015359;28;20284;-73
2021/12/24 09:16:34;;;;;;;42.37;7.97;;;;;;;;;;5033502;28;20327;-72
2021/12/24 09:19:05;;;;;;;37.37;8.53;;;;;;;;;;5033487;28;20284;-71
2021/12/24 09:21:33;;;;;;;42.63;8.93;;;;;;;;;;5033590;28;20296;-72
2021/12/24 09:23:59;;;;;;;35.10;9.10;;;;;;;;;;5016015;28;20297;-71
2021/12/24 09:26:32;;;;;;;39.13;8.37;;;;;;;;;;5015315;28;20287;-72
2021/12/24 09:28:59;;;;;;;30.53;8.07;;;;;;;;;;5033217;28;20291;-72
2021/12/24 09:31:26;;;;;;;40.27;8.50;;;;;;;;;;5032788;28;20819;-72
2021/12/24 09:33:52;;;;;;;37.00;8.17;;;;;;;;;;5033069;28;20280;-72
2021/12/24 09:36:24;;;;;;;24.97;7.23;;;;;;;;;;5033022;28;20292;-73
2021/12/24 09:38:51;;;;;;;32.97;7.57;;;;;;;;;;5033249;28;20379;-71
2021/12/24 09:41:18;;;;;;;26.37;6.33;;;;;;;;;;5032635;28;20382;-72
2021/12/24 09:43:44;;;;;;;22.93;6.60;;;;;;;;;;5033007;28;20659;-72
2021/12/24 09:46:12;;;;;;;30.40;6.70;;;;;;;;;;5032611;28;20760;-73
2021/12/24 09:48:38;;;;;;;26.53;7.20;;;;;;;;;;5033100;28;20371;-73
2021/12/24 09:51:04;;;;;;;39.43;7.50;;;;;;;;;;5032842;28;20273;-74
2021/12/24 09:53:30;;;;;;;24.60;6.10;;;;;;;;;;5032561;28;20394;-73
2021/12/24 09:55:56;;;;;;;20.53;5.70;;;;;;;;;;5033007;28;20367;-72
2021/12/24 09:58:22;;;;;;;22.23;5.37;;;;;;;;;;5032583;28;20370;-72
2021/12/24 10:00:49;;;;;;;17.47;4.43;;;;;;;;;;5032732;28;20382;-72
2021/12/24 10:03:34;;;;;;;19.17;4.90;;;;;;;;;;5032480;28;20296;-74
2021/12/24 10:06:00;;;;;;;;;;;;;;;;;;5033181;28;20280;-73
2021/12/24 10:08:27;;;;;;;4.83;1.53;;;;;;;;;;5032525;28;19921;-72
2021/12/24 10:11:00;;;;;;;3.07;1.30;;;;;;;;;;5032662;28;20342;-73
2021/12/24 10:13:32;;;;;;;3.90;1.60;;;;;;;;;;5032423;28;20287;-72
2021/12/24 10:16:00;;;;;;;2.60;1.20;;;;;;;;;;5015065;28;20295;-74
2021/12/24 10:18:31;;;;;;;3.70;1.33;;;;;;;;;;5032321;28;20764;-72
2021/12/24 10:21:01;;;;;;;2.30;1.30;;;;;;;;;;5032564;28;20296;-72
2021/12/24 10:23:40;;;;;;;3.00;1.57;;;;;;;;;;5032233;28;20284;-73
2021/12/24 10:26:18;;;;;;;3.33;1.40;;;;;;;;;;5035976;28;20323;-71
2021/12/24 10:29:04;;;;;;;4.13;1.90;;;;;;;;;;5036489;28;20342;-71
2021/12/24 10:31:32;;;;;;;3.20;1.42;;;;;;;;;;5036289;28;20296;-72
2021/12/24 10:34:08;;;;;;;6.60;2.20;;;;;;;;;;5036589;28;20075;-70
2021/12/24 10:36:54;;;;;;;6.00;2.28;;;;;;;;;;5035630;28;20340;-73
2021/12/24 10:39:22;;;;;;;8.80;3.03;;;;;;;;;;5033913;28;20553;-72
2021/12/24 10:41:50;;;;;;;6.73;2.30;;;;;;;;;;5018462;28;20644;-74
2021/12/24 10:44:20;;;;;;;5.13;2.33;;;;;;;;;;5036280;28;20280;-75
2021/12/24 10:47:00;;;;;;;5.60;2.30;;;;;;;;;;5036097;28;20291;-75
2021/12/24 10:49:50;;;;;;;5.57;2.20;;;;;;;;;;5035738;28;20296;-75
2021/12/24 10:52:32;;;;;;;5.77;2.37;;;;;;;;;;5036174;28;20299;-75
2021/12/24 10:54:59;;;;;;;4.10;2.20;;;;;;;;;;5035858;28;20306;-75
2021/12/24 10:57:30;;;;;;;5.27;2.70;;;;;;;;;;5035688;28;20371;-74
2021/12/24 10:59:57;;;;;;;4.87;2.47;;;;;;;;;;5036008;28;20277;-74
2021/12/24 11:02:28;;;;;;;3.27;1.70;;;;;;;;;;5035503;28;20300;-74
2021/12/24 11:04:54;;;;;;;4.33;2.10;;;;;;;;;;5035853;28;20350;-74
2021/12/24 11:07:38;;;;;;;3.80;1.93;;;;;;;;;;5035571;28;20335;-74
2021/12/24 11:10:15;;;;;;;5.00;3.87;;;;;;;;;;5035769;28;20668;-72
2021/12/24 11:12:41;;;;;;;3.20;1.80;;;;;;;;;;5035234;28;20288;-73
2021/12/24 11:15:39;;;;;;;4.90;2.87;;;;;;;;;;5035393;28;20292;-73
2021/12/24 11:18:08;;;;;;;4.57;2.20;;;;;;;;;;5012992;28;20383;-72
2021/12/24 11:20:35;;;;;;;4.50;2.37;;;;;;;;;;5017507;28;20383;-73
2021/12/24 11:23:05;;;;;;;3.80;2.10;;;;;;;;;;5035461;28;20315;-73
2021/12/24 11:25:33;;;;;;;3.60;2.20;;;;;;;;;;5035084;28;20342;-73
2021/12/24 11:28:01;;;;;;;5.93;3.93;;;;;;;;;;5017721;28;20299;-72
2021/12/24 11:30:28;;;;;;;5.13;2.73;;;;;;;;;;5035040;28;20281;-73
2021/12/24 11:32:54;;;;;;;3.37;2.23;;;;;;;;;;5035280;28;20334;-72
2021/12/24 11:35:21;;;;;;;5.17;2.50;;;;;;;;;;5035176;28;20280;-73
2021/12/24 11:37:49;;;;;;;4.23;2.40;;;;;;;;;;5035097;28;20385;-73
2021/12/24 11:40:16;;;;;;;5.53;3.10;;;;;;;;;;5034979;28;20289;-72
2021/12/24 11:42:44;;;;;;;4.50;2.57;;;;;;;;;;5034765;28;20323;-73
2021/12/24 11:45:11;;;;;;;4.43;2.40;;;;;;;;;;5035038;28;20291;-73
2021/12/24 11:47:37;;;;;;;4.20;2.70;;;;;;;;;;5034674;28;20287;-77
2021/12/24 11:50:04;;;;;;;5.10;2.63;;;;;;;;;;5034947;28;20362;-76
2021/12/24 11:52:30;;;;;;;5.17;2.53;;;;;;;;;;5034607;28;20375;-74
2021/12/24 11:54:57;;;;;;;5.30;2.63;;;;;;;;;;5017247;28;20367;-75
2021/12/24 11:57:24;;;;;;;5.97;3.00;;;;;;;;;;5034843;28;20287;-76
2021/12/24 11:59:51;;;;;;;6.10;2.87;;;;;;;;;;5034746;28;20284;-76
2021/12/24 12:02:35;;;;;;;4.77;3.20;;;;;;;;;;5016979;28;20703;-75
2021/12/24 12:05:15;;;;;;;5.37;3.00;;;;;;;;;;5034333;28;20796;-77
2021/12/24 12:07:41;;;;;;;5.90;3.77;;;;;;;;;;5034312;28;20307;-76
2021/12/24 12:10:08;;;;;;;6.80;2.90;;;;;;;;;;5034745;28;20352;-75
2021/12/24 12:12:35;;;;;;;7.77;3.63;;;;;;;;;;5034239;28;20843;-77
2021/12/24 12:15:20;;;;;;;8.20;4.00;;;;;;;;;;5034709;28;20366;-75
2021/12/24 12:17:53;;;;;;;6.43;2.88;;;;;;;;;;5016353;28;20335;-75
2021/12/24 12:20:52;;;;;;;5.87;3.10;;;;;;;;;;5034325;28;20085;-75
2021/12/24 12:23:46;;;;;;;7.27;3.20;;;;;;;;;;5034581;28;20640;-75
2021/12/24 12:26:31;;;;;;;5.40;3.17;;;;;;;;;;5034565;28;20284;-80
2021/12/24 12:29:15;;;;;;;5.18;3.08;;;;;;;;;;5016663;28;20375;-76
2021/12/24 12:31:41;;;;;;;5.83;2.70;;;;;;;;;;5033943;28;20042;-73
2021/12/24 12:34:26;;;;;;;5.00;3.33;;;;;;;;;;5034090;28;20283;-72
2021/12/24 12:36:52;;;;;;;7.43;4.10;;;;;;;;;;5033294;28;20645;-77
2021/12/24 12:39:28;;;;;;;9.03;4.47;;;;;;;;;;5034139;28;20049;-74
2021/12/24 12:41:54;;;;;;;;;;;;;;;;;;5034035;28;20391;-73
2021/12/24 12:44:20;;;;;;;7.23;3.50;;;;;;;;;;5033926;28;19967;-73
2021/12/24 12:46:48;;;;;;;6.40;3.93;;;;;;;;;;5033392;28;20319;-75
2021/12/24 12:49:20;;;;;;;6.23;3.70;;;;;;;;;;5033630;28;20690;-74
2021/12/24 12:52:04;;;;;;;7.80;4.63;;;;;;;;;;5033222;28;20280;-72
2021/12/24 12:54:31;;;;;;;8.20;4.30;;;;;;;;;;5033735;28;20292;-70
2021/12/24 12:57:09;;;;;;;5.97;4.17;;;;;;;;;;5033137;28;20768;-74
2021/12/24 12:59:35;;;;;;;7.30;3.60;;;;;;;;;;5033304;28;20795;-73
2021/12/24 13:02:01;;;;;;;9.77;4.80;;;;;;;;;;5033722;28;20637;-73
2021/12/24 13:04:27;;;;;;;7.03;4.30;;;;;;;;;;5033750;28;20719;-73
2021/12/24 13:06:55;;;;;;;6.50;3.60;;;;;;;;;;5033305;28;20893;-72
2021/12/24 13:09:23;;;;;;;7.00;4.13;;;;;;;;;;5033607;28;20284;-71
2021/12/24 13:11:50;;;;;;;7.20;3.93;;;;;;;;;;5033292;28;20272;-71
2021/12/24 13:14:18;;;;;;;7.57;3.97;;;;;;;;;;5033522;28;20284;-71
2021/12/24 13:16:54;;;;;;;9.40;4.17;;;;;;;;;;5033075;28;20272;-72
2021/12/24 13:19:53;;;;;;;6.40;3.60;;;;;;;;;;5033339;28;20594;-72
2021/12/24 13:22:33;;;;;;;5.87;3.30;;;;;;;;;;5015404;28;20307;-77
2021/12/24 13:25:13;;;;;;;7.73;3.57;;;;;;;;;;5033043;28;20342;-76
2021/12/24 13:27:50;;;;;;;8.90;3.67;;;;;;;;;;5033277;28;20316;-76
2021/12/24 13:30:16;;;;;;;7.57;3.73;;;;;;;;;;5033372;28;20378;-75
2021/12/24 13:32:45;;;;;;;7.63;3.90;;;;;;;;;;5015320;28;20292;-76
2021/12/24 13:35:12;;;;;;;7.40;3.00;;;;;;;;;;5033184;28;20705;-75
2021/12/24 13:37:39;;;;;;;6.00;3.03;;;;;;;;;;5032649;28;20819;-76
2021/12/24 13:40:09;;;;;;;5.67;3.07;;;;;;;;;;5015473;28;20640;-76
2021/12/24 13:42:46;;;;;;;5.20;3.10;;;;;;;;;;5033073;28;20328;-74
2021/12/24 13:45:12;;;;;;;6.00;3.00;;;;;;;;;;5033016;28;20398;-74
2021/12/24 13:55:30;;;;;;;5.20;2.73;;;;;;;;;;5033133;28;20280;-73
2021/12/24 13:57:58;;;;;;;8.77;2.60;;;;;;;;;;5032583;28;20323;-73
2021/12/24 14:00:25;;;;;;;5.20;2.20;;;;;;;;;;5031623;28;20769;-72
2021/12/24 14:02:58;;;;;;;6.20;3.20;;;;;;;;;;5032622;28;20295;-71
2021/12/24 14:05:25;;;;;;;8.63;6.70;;;;;;;;;;5032635;28;20745;-71
2021/12/24 14:08:12;;;;;;;7.60;4.50;;;;;;;;;;5031359;28;20284;-73
2021/12/24 14:10:39;;;;;;;7.07;3.63;;;;;;;;;;5031930;28;20748;-72
2021/12/24 14:13:13;;;;;;;6.73;3.47;;;;;;;;;;5032294;28;20367;-72
2021/12/24 14:24:04;;;;;;;6.83;3.40;;;;;;;;;;5032343;28;20284;-72
2021/12/24 14:26:34;;;;;;;6.83;2.90;;;;;;;;;;5032327;28;20337;-72
2021/12/24 14:29:05;;;;;;;7.07;3.70;;;;;;;;;;5032332;28;20299;-71
2021/12/24 14:31:52;;;;;;;6.10;2.87;;;;;;;;;;5032845;28;20285;-72
2021/12/24 14:34:28;;;;;;;7.73;2.70;;;;;;;;;;5032654;28;20616;-72
2021/12/24 14:36:58;;;;;;;5.03;2.57;;;;;;;;;;5031707;28;20372;-72
2021/12/24 14:39:24;;;;;;;9.47;2.97;;;;;;;;;;5032478;28;20296;-72
2021/12/24 14:42:20;;;;;;;7.10;3.10;;;;;;;;;;5020870;28;20374;-73
2021/12/24 14:44:47;;;;;;;5.65;2.38;;;;;;;;;;4987785;28;20648;-73
2021/12/24 14:47:17;;;;;;;3.30;1.77;;;;;;;;;;5031198;28;20052;-73
2021/12/24 14:49:43;;;;;;;5.97;1.40;;;;;;;;;;5031284;28;20370;-72
2021/12/24 14:52:21;;;;;;;2.07;1.10;;;;;;;;;;5009188;28;20419;-72
2021/12/24 14:55:06;;;;;;;4.70;1.27;;;;;;;;;;5014596;28;20311;-72
2021/12/24 14:57:32;;;;;;;;;;;;;;;;;;5009624;28;20280;-72
2021/12/24 15:00:05;;;;;;;5.53;1.50;;;;;;;;;;5013195;28;20019;-71
2021/12/24 15:02:32;;;;;;;2.27;0.90;;;;;;;;;;5030858;28;20053;-71
2021/12/24 15:04:58;;;;;;;2.27;1.00;;;;;;;;;;5028464;28;20284;-72
2021/12/24 15:07:31;;;;;;;4.73;1.40;;;;;;;;;;5021118;28;21096;-73
2021/12/24 15:10:13;;;;;;;4.57;1.30;;;;;;;;;;5009685;28;20835;-73
2021/12/24 15:12:58;;;;;;;3.93;1.40;;;;;;;;;;5014740;28;20339;-74
2021/12/24 15:15:25;;;;;;;3.42;0.90;;;;;;;;;;5009957;28;20332;-73
2021/12/24 15:17:51;;;;;;;4.03;1.10;;;;;;;;;;5014051;28;20046;-71
2021/12/24 15:20:17;;;;;;;6.93;1.10;;;;;;;;;;5014497;28;20281;-72
2021/12/24 15:22:43;;;;;;;5.13;1.40;;;;;;;;;;4997286;28;21266;-72
2021/12/24 15:25:10;;;;;;;4.20;1.30;;;;;;;;;;4992582;28;20297;-72
2021/12/24 15:27:37;;;;;;;5.07;1.10;;;;;;;;;;5002361;28;20356;-72
2021/12/24 15:30:08;;;;;;;3.33;1.17;;;;;;;;;;5013939;28;20277;-72
2021/12/24 15:32:34;;;;;;;4.30;1.10;;;;;;;;;;5014106;28;20360;-73
2021/12/24 15:35:00;;;;;;;7.40;1.37;;;;;;;;;;4994872;28;20364;-73
2021/12/24 15:37:26;;;;;;;6.70;1.50;;;;;;;;;;5013377;28;20691;-73
2021/12/24 15:39:52;;;;;;;3.47;1.10;;;;;;;;;;5013683;28;20327;-71
2021/12/24 15:42:19;;;;;;;9.03;2.40;;;;;;;;;;5013758;28;20391;-72
2021/12/24 15:44:48;;;;;;;9.97;2.93;;;;;;;;;;5008050;28;20335;-73
2021/12/24 15:47:15;;;;;;;9.20;2.23;;;;;;;;;;5033280;28;20280;-73
2021/12/24 15:49:41;;;;;;;7.23;1.90;;;;;;;;;;5033498;28;20291;-73
2021/12/24 15:52:08;;;;;;;6.77;2.23;;;;;;;;;;5015774;28;20288;-73
2021/12/24 15:54:34;;;;;;;10.20;3.00;;;;;;;;;;5024366;28;20364;-73
2021/12/24 15:57:00;;;;;;;10.37;2.63;;;;;;;;;;4996411;28;20293;-73
2021/12/24 15:59:31;;;;;;;7.27;3.00;;;;;;;;;;5013596;28;20304;-73
2021/12/24 16:01:57;;;;;;;11.33;3.37;;;;;;;;;;5013299;28;20305;-73
2021/12/24 16:04:23;;;;;;;8.50;3.37;;;;;;;;;;5011873;28;20288;-73
2021/12/24 16:06:49;;;;;;;7.60;2.87;;;;;;;;;;5013160;28;20375;-71
2021/12/24 16:09:19;;;;;;;12.70;3.40;;;;;;;;;;5013008;28;20582;-73
2021/12/24 16:11:46;;;;;;;8.13;3.50;;;;;;;;;;5013498;28;20292;-74
2021/12/24 16:14:12;;;;;;;7.67;3.30;;;;;;;;;;5011634;28;20313;-72
2021/12/24 16:16:41;;;;;;;5.07;2.60;;;;;;;;;;5013229;28;20277;-73
2021/12/24 16:19:07;;;;;;;8.83;4.23;;;;;;;;;;5012546;28;20324;-71
2021/12/24 16:21:33;;;;;;;8.37;3.17;;;;;;;;;;5016630;28;20307;-73
2021/12/24 16:23:59;;;;;;;7.47;3.57;;;;;;;;;;5016151;28;20339;-72
2021/12/24 16:26:25;;;;;;;7.87;2.57;;;;;;;;;;5034339;28;20280;-73
2021/12/24 16:28:53;;;;;;;6.63;1.80;;;;;;;;;;5034437;28;20315;-78
2021/12/24 16:31:19;;;;;;;7.23;1.80;;;;;;;;;;5033173;28;20369;-75
2021/12/24 16:33:45;;;;;;;8.17;2.50;;;;;;;;;;5034031;28;20376;-75
2021/12/24 16:36:11;;;;;;;9.00;3.47;;;;;;;;;;5033340;28;20792;-76
2021/12/24 16:38:37;;;;;;;7.38;2.35;;;;;;;;;;5033913;28;20330;-76